Time;durP1;ratioP1;P1;durP2;ratioP2;P2;SDS_P1;SDS_P2;PMS_P1;PMS_P2;Temp;Humidity;BMP_temperature;BMP_pressure;BME280_temperature;BME280_humidity;BME280_pressure;Samples;Min_cycle;Max_cycle;Signal;HPM_P1;HPM_P2
2021/05/26 00:01:16;;;;;;;5.95;5.10;;;6.30;70.00;;;;;;5191263;28;20077;-71
2021/05/26 00:03:48;;;;;;;6.97;5.40;;;6.30;70.00;;;;;;5191756;28;20037;-71
2021/05/26 00:06:19;;;;;;;5.75;5.13;;;6.30;70.00;;;;;;5192098;28;20477;-70
2021/05/26 00:08:52;;;;;;;5.82;5.22;;;6.30;70.00;;;;;;5189460;28;20057;-72
2021/05/26 00:11:23;;;;;;;6.13;4.95;;;6.20;71.30;;;;;;5189663;28;20056;-69
2021/05/26 00:13:55;;;;;;;5.22;4.72;;;6.10;71.20;;;;;;5191787;28;20512;-70
2021/05/26 00:16:27;;;;;;;5.72;5.22;;;5.90;71.60;;;;;;5191188;28;20715;-69
2021/05/26 00:18:59;;;;;;;5.65;5.05;;;5.90;71.60;;;;;;5192344;28;20045;-70
2021/05/26 00:21:31;;;;;;;7.63;5.07;;;5.90;71.40;;;;;;5188512;28;20528;-70
2021/05/26 00:24:03;;;;;;;5.65;5.15;;;5.90;71.70;;;;;;5190225;28;20053;-70
2021/05/26 00:26:35;;;;;;;6.25;5.43;;;5.90;72.00;;;;;;5189302;28;20045;-70
2021/05/26 00:29:08;;;;;;;6.85;5.15;;;5.80;72.00;;;;;;5187352;28;20084;-69
2021/05/26 00:31:40;;;;;;;6.07;5.28;;;5.80;72.20;;;;;;5188069;28;20425;-70
2021/05/26 00:34:12;;;;;;;5.90;5.30;;;5.70;72.10;;;;;;5190493;28;20072;-70
2021/05/26 00:36:44;;;;;;;5.63;5.07;;;5.70;72.20;;;;;;5193464;28;20045;-71
2021/05/26 00:39:16;;;;;;;5.20;4.70;;;5.80;71.70;;;;;;5191444;28;20416;-70
2021/05/26 00:41:48;;;;;;;5.80;5.20;;;5.80;71.70;;;;;;5187048;28;20068;-70
2021/05/26 00:44:20;;;;;;;5.82;5.20;;;5.70;72.30;;;;;;5190607;28;20138;-70
2021/05/26 00:46:53;;;;;;;6.30;5.13;;;5.70;72.50;;;;;;5189709;28;20060;-70
2021/05/26 00:49:27;;;;;;;5.93;5.28;;;5.70;72.40;;;;;;5204552;28;20107;-70
2021/05/26 00:51:59;;;;;;;5.68;4.90;;;5.70;71.80;;;;;;5189178;28;20144;-69
2021/05/26 00:54:32;;;;;;;6.18;5.28;;;5.70;71.70;;;;;;5173306;28;20045;-70
2021/05/26 00:57:04;;;;;;;6.43;5.15;;;5.70;72.10;;;;;;5194516;28;20132;-69
2021/05/26 00:59:36;;;;;;;5.47;4.97;;;5.70;71.60;;;;;;5210449;28;20045;-70
2021/05/26 01:02:09;;;;;;;6.68;5.47;;;5.70;72.30;;;;;;5198502;28;20045;-71
2021/05/26 01:04:41;;;;;;;5.55;4.80;;;5.60;71.90;;;;;;5184763;28;20052;-71
2021/05/26 01:07:16;;;;;;;6.85;5.40;;;5.60;72.40;;;;;;5207162;28;20071;-70
2021/05/26 01:09:48;;;;;;;6.93;5.30;;;5.60;72.10;;;;;;5211053;28;20044;-70
2021/05/26 01:12:21;;;;;;;5.85;5.25;;;5.60;72.00;;;;;;5198568;28;20102;-70
2021/05/26 01:14:53;;;;;;;7.85;5.47;;;5.60;72.10;;;;;;5210176;28;20048;-70
2021/05/26 01:17:25;;;;;;;5.88;5.22;;;5.50;72.20;;;;;;5208831;28;20059;-70
2021/05/26 01:19:57;;;;;;;5.80;5.20;;;5.40;73.00;;;;;;5193186;28;20122;-71
2021/05/26 01:22:30;;;;;;;5.90;5.30;;;5.40;72.60;;;;;;5210098;28;20048;-72
2021/05/26 01:25:05;;;;;;;6.75;5.82;;;5.40;72.70;;;;;;5199943;28;20049;-70
2021/05/26 01:27:36;;;;;;;6.63;5.38;;;5.30;73.30;;;;;;5208270;28;20077;-71
2021/05/26 01:30:09;;;;;;;5.80;5.28;;;5.30;73.50;;;;;;5209196;28;20044;-70
2021/05/26 01:32:44;;;;;;;6.05;5.45;;;5.30;73.30;;;;;;5195412;28;20073;-72
2021/05/26 01:35:19;;;;;;;6.45;5.50;;;5.40;72.70;;;;;;5224613;28;20037;-72
2021/05/26 01:37:52;;;;;;;6.30;5.70;;;5.40;72.50;;;;;;5214273;28;20033;-71
2021/05/26 01:40:24;;;;;;;6.65;5.60;;;5.40;72.20;;;;;;5193572;28;20688;-72
2021/05/26 01:42:56;;;;;;;8.80;5.40;;;5.50;72.20;;;;;;5210176;28;20035;-71
2021/05/26 01:45:28;;;;;;;5.82;5.25;;;5.50;72.20;;;;;;5207892;28;20067;-72
2021/05/26 01:48:01;;;;;;;6.50;5.47;;;5.50;72.00;;;;;;5207979;28;20048;-71
2021/05/26 01:50:34;;;;;;;5.85;5.18;;;5.50;72.20;;;;;;5209454;28;20102;-71
2021/05/26 01:53:09;;;;;;;6.20;5.60;;;5.50;72.40;;;;;;5209562;28;20061;-72
2021/05/26 01:55:41;;;;;;;5.60;5.07;;;5.50;72.30;;;;;;5216779;28;20530;-70
2021/05/26 01:58:18;;;;;;;6.03;5.43;;;5.40;72.40;;;;;;5191436;28;20095;-71
2021/05/26 02:00:53;;;;;;;5.57;5.07;;;5.40;72.30;;;;;;5204157;28;20901;-70
2021/05/26 02:03:25;;;;;;;5.90;5.30;;;5.40;72.50;;;;;;5172324;28;20455;-71
2021/05/26 02:05:57;;;;;;;5.63;5.13;;;5.40;72.60;;;;;;5190162;28;20417;-69
2021/05/26 02:08:30;;;;;;;5.80;5.20;;;5.40;72.20;;;;;;5188766;28;20460;-69
2021/05/26 02:13:58;;;;;;;5.85;5.25;;;5.40;72.30;;;;;;5187157;28;20033;-70
2021/05/26 02:16:32;;;;;;;7.22;5.10;;;5.40;72.20;;;;;;5188097;28;20518;-71
2021/05/26 02:19:05;;;;;;;6.35;5.32;;;5.40;72.10;;;;;;5180642;28;20053;-69
2021/05/26 02:21:37;;;;;;;5.97;5.38;;;5.40;72.10;;;;;;5188236;28;20056;-69
2021/05/26 02:24:09;;;;;;;5.85;5.25;;;5.40;71.90;;;;;;5189129;28;20049;-69
2021/05/26 02:26:41;;;;;;;5.38;4.88;;;5.40;72.40;;;;;;5186866;28;20571;-70
2021/05/26 02:29:13;;;;;;;5.85;5.15;;;5.40;72.20;;;;;;5161603;28;20045;-70
2021/05/26 02:31:45;;;;;;;5.88;5.38;;;5.30;72.60;;;;;;5186668;28;20042;-70
2021/05/26 02:34:18;;;;;;;6.10;5.50;;;5.20;73.60;;;;;;5172516;28;20049;-70
2021/05/26 02:36:50;;;;;;;6.22;4.95;;;5.20;73.70;;;;;;5171445;28;20157;-70
2021/05/26 02:39:25;;;;;;;6.50;5.47;;;5.10;74.70;;;;;;5203925;28;20053;-70
2021/05/26 02:41:58;;;;;;;7.20;5.43;;;5.10;74.60;;;;;;5186323;28;20057;-69
2021/05/26 02:44:31;;;;;;;6.30;5.70;;;5.10;73.90;;;;;;5209129;28;20053;-70
2021/05/26 02:47:03;;;;;;;5.90;5.30;;;5.20;74.00;;;;;;5182543;28;20041;-70
2021/05/26 02:49:40;;;;;;;6.22;5.63;;;5.20;74.10;;;;;;5176515;28;20044;-70
2021/05/26 02:52:14;;;;;;;6.20;5.60;;;5.20;73.80;;;;;;5191211;28;20046;-69
2021/05/26 02:54:47;;;;;;;5.97;5.38;;;5.20;73.40;;;;;;5177945;28;20086;-69
2021/05/26 02:57:20;;;;;;;5.90;5.30;;;5.20;72.80;;;;;;5179510;28;20504;-71
2021/05/26 03:00:20;;;;;;;5.80;5.20;;;5.30;73.00;;;;;;5180570;28;20046;-71
2021/05/26 03:03:07;;;;;;;6.13;5.20;;;5.30;73.00;;;;;;5175607;28;20045;-72
2021/05/26 03:05:42;;;;;;;6.20;5.18;;;5.30;73.00;;;;;;5175045;28;20048;-71
2021/05/26 03:08:14;;;;;;;5.88;5.28;;;5.30;73.70;;;;;;5174936;28;20045;-70
2021/05/26 03:10:46;;;;;;;6.35;5.28;;;5.20;73.40;;;;;;5193209;28;20513;-70
2021/05/26 03:13:36;;;;;;;7.82;5.82;;;5.20;73.50;;;;;;5176378;28;20045;-71
2021/05/26 03:16:09;;;;;;;6.05;5.47;;;5.30;72.90;;;;;;5193279;28;20048;-71
2021/05/26 03:18:43;;;;;;;6.57;5.35;;;5.30;72.50;;;;;;5192382;28;20069;-70
2021/05/26 03:21:15;;;;;;;6.57;5.90;;;5.20;73.30;;;;;;5174531;28;20578;-71
2021/05/26 03:24:11;;;;;;;5.93;5.40;;;5.10;74.00;;;;;;5206849;28;20046;-70
2021/05/26 03:26:45;;;;;;;6.78;5.68;;;5.10;73.30;;;;;;5195647;28;20120;-71
2021/05/26 03:29:18;;;;;;;6.10;5.50;;;5.10;73.80;;;;;;5193638;28;20478;-71
2021/05/26 03:31:50;;;;;;;6.47;5.60;;;5.10;74.40;;;;;;5205959;28;20133;-69
2021/05/26 03:34:23;;;;;;;6.03;5.43;;;5.20;73.30;;;;;;5204047;28;20104;-70
2021/05/26 03:36:56;;;;;;;6.18;5.57;;;5.20;73.90;;;;;;5189933;28;20069;-71
2021/05/26 03:39:28;;;;;;;6.35;5.75;;;5.10;73.90;;;;;;5192816;28;20057;-70
2021/05/26 03:42:03;;;;;;;7.35;5.57;;;5.10;74.40;;;;;;5173547;28;20070;-70
2021/05/26 03:44:35;;;;;;;7.18;5.50;;;5.00;74.20;;;;;;5194212;28;20395;-70
2021/05/26 03:47:07;;;;;;;5.85;5.22;;;5.10;73.70;;;;;;5192870;28;21615;-70
2021/05/26 03:49:43;;;;;;;6.10;5.50;;;5.00;73.80;;;;;;5191219;28;20475;-71
2021/05/26 03:52:15;;;;;;;6.68;5.97;;;5.10;74.00;;;;;;5190778;28;20123;-70
2021/05/26 03:54:49;;;;;;;6.70;5.30;;;5.00;74.40;;;;;;5192094;28;20050;-69
2021/05/26 03:57:22;;;;;;;6.00;5.35;;;5.00;74.10;;;;;;5179629;28;20149;-69
2021/05/26 03:59:54;;;;;;;5.72;5.22;;;5.00;74.40;;;;;;5165113;28;20500;-70
2021/05/26 04:02:27;;;;;;;6.00;5.20;;;5.00;74.20;;;;;;5189759;28;20491;-69
2021/05/26 04:04:59;;;;;;;6.00;5.00;;;4.90;75.30;;;;;;5190328;28;20042;-69
2021/05/26 04:07:31;;;;;;;6.95;5.13;;;4.80;75.30;;;;;;5189873;28;20746;-69
2021/05/26 04:10:04;;;;;;;5.72;5.22;;;4.80;75.30;;;;;;5206423;28;20167;-70
2021/05/26 04:12:39;;;;;;;6.18;5.35;;;4.80;75.40;;;;;;5187988;28;20061;-69
2021/05/26 04:15:22;;;;;;;5.72;5.22;;;4.90;75.20;;;;;;5189435;28;20041;-71
2021/05/26 04:18:14;;;;;;;5.82;5.00;;;5.00;74.70;;;;;;5190741;28;20524;-71
2021/05/26 04:20:49;;;;;;;6.85;5.30;;;5.20;74.30;;;;;;5193981;28;20545;-69
2021/05/26 04:23:21;;;;;;;5.25;4.75;;;5.20;74.30;;;;;;5192380;28;20563;-70
2021/05/26 04:26:05;;;;;;;5.57;4.97;;;5.30;74.20;;;;;;5174917;28;20053;-70
2021/05/26 04:28:45;;;;;;;5.20;4.68;;;5.30;74.10;;;;;;5175930;28;20115;-70
2021/05/26 04:31:20;;;;;;;6.05;4.88;;;5.40;74.10;;;;;;5171183;28;20048;-68
2021/05/26 04:33:53;;;;;;;5.72;5.10;;;5.60;73.70;;;;;;5187721;28;20044;-69
2021/05/26 04:36:24;;;;;;;6.32;5.30;;;5.70;73.60;;;;;;5187573;28;20127;-68
2021/05/26 04:38:56;;;;;;;6.15;5.55;;;5.90;74.80;;;;;;5189229;28;20095;-68
2021/05/26 04:41:29;;;;;;;6.03;5.35;;;6.00;74.50;;;;;;5189058;28;20038;-68
2021/05/26 04:44:01;;;;;;;5.90;5.22;;;6.20;74.90;;;;;;5191131;28;20559;-69
2021/05/26 04:46:33;;;;;;;6.05;5.30;;;6.30;74.80;;;;;;5189116;28;20045;-68
2021/05/26 04:49:05;;;;;;;6.00;5.45;;;6.40;74.60;;;;;;5191819;28;20046;-68
2021/05/26 04:51:36;;;;;;;5.88;5.28;;;6.50;74.50;;;;;;5190977;28;20057;-68
2021/05/26 04:54:08;;;;;;;6.75;5.90;;;6.60;73.50;;;;;;5192054;28;20088;-69
2021/05/26 04:56:40;;;;;;;6.00;5.40;;;6.60;74.00;;;;;;5189376;28;20042;-70
2021/05/26 04:59:12;;;;;;;7.35;6.10;;;6.80;72.90;;;;;;5188175;28;20045;-68
2021/05/26 05:01:44;;;;;;;6.47;5.65;;;6.90;68.30;;;;;;5187847;28;20798;-68
2021/05/26 05:04:16;;;;;;;7.82;5.50;;;7.10;70.20;;;;;;5185483;28;20100;-69
2021/05/26 05:06:48;;;;;;;5.72;4.97;;;7.20;68.00;;;;;;5175983;28;20050;-68
2021/05/26 05:09:20;;;;;;;5.75;5.25;;;7.30;68.10;;;;;;5189721;28;20042;-69
2021/05/26 05:11:52;;;;;;;5.75;5.07;;;7.40;67.40;;;;;;5186924;28;20049;-69
2021/05/26 05:14:24;;;;;;;5.57;5.00;;;7.50;68.70;;;;;;5188447;28;20053;-69
2021/05/26 05:16:56;;;;;;;6.43;5.78;;;7.70;68.80;;;;;;5186309;28;20057;-69
2021/05/26 05:19:28;;;;;;;6.88;6.00;;;7.80;66.20;;;;;;5172179;28;20056;-69
2021/05/26 05:22:00;;;;;;;8.60;6.25;;;8.00;67.50;;;;;;5173219;28;20132;-69
2021/05/26 05:24:32;;;;;;;6.50;5.88;;;8.10;68.10;;;;;;5188838;28;20120;-70
2021/05/26 05:27:07;;;;;;;7.45;5.60;;;8.20;68.60;;;;;;5189066;28;20528;-69
2021/05/26 05:29:39;;;;;;;7.10;5.90;;;8.30;68.80;;;;;;5188251;28;20048;-69
2021/05/26 05:32:11;;;;;;;6.90;5.72;;;8.30;68.70;;;;;;5189742;28;20049;-72
2021/05/26 05:34:43;;;;;;;7.05;5.53;;;8.40;69.10;;;;;;5190003;28;20049;-69
2021/05/26 05:37:15;;;;;;;8.93;5.65;;;8.40;69.20;;;;;;5186190;28;20042;-69
2021/05/26 05:39:47;;;;;;;7.68;5.82;;;8.40;69.10;;;;;;5187964;28;20041;-70
2021/05/26 05:42:19;;;;;;;7.60;5.80;;;8.50;69.10;;;;;;5187858;28;20038;-70
2021/05/26 05:44:51;;;;;;;7.38;6.57;;;8.50;68.80;;;;;;5189204;28;20509;-70
2021/05/26 05:47:23;;;;;;;9.15;6.28;;;8.60;68.80;;;;;;5187831;28;20127;-70
2021/05/26 05:49:55;;;;;;;7.57;6.47;;;8.80;69.70;;;;;;5187585;28;20049;-70
2021/05/26 05:52:27;;;;;;;8.30;7.35;;;9.00;68.40;;;;;;5191409;28;20037;-69
2021/05/26 05:54:59;;;;;;;8.43;7.03;;;9.20;68.20;;;;;;5169477;28;20626;-70
2021/05/26 05:57:30;;;;;;;11.88;7.40;;;9.40;68.20;;;;;;5187824;28;20203;-70
2021/05/26 06:00:04;;;;;;;7.60;6.63;;;9.50;70.40;;;;;;5187158;28;20504;-69
2021/05/26 06:02:44;;;;;;;7.07;6.47;;;9.60;67.00;;;;;;5185370;28;20496;-70
2021/05/26 06:05:17;;;;;;;8.18;7.35;;;9.70;60.50;;;;;;5172218;28;20095;-70
2021/05/26 06:07:49;;;;;;;9.30;7.60;;;9.60;62.90;;;;;;5186123;28;20440;-68
2021/05/26 06:10:21;;;;;;;7.40;6.57;;;9.60;63.00;;;;;;5171387;28;20088;-69
2021/05/26 06:12:56;;;;;;;8.32;7.30;;;9.60;64.00;;;;;;5176133;28;20096;-69
2021/05/26 06:15:28;;;;;;;9.75;8.02;;;9.70;63.70;;;;;;5185246;28;20903;-68
2021/05/26 06:18:00;;;;;;;8.95;7.32;;;9.80;64.30;;;;;;5188145;28;20045;-69
2021/05/26 06:20:32;;;;;;;8.23;7.47;;;9.90;63.60;;;;;;5188555;28;20042;-69
2021/05/26 06:23:04;;;;;;;7.43;6.60;;;10.00;63.50;;;;;;5183541;28;20049;-70
2021/05/26 06:25:37;;;;;;;8.57;7.30;;;10.10;63.20;;;;;;5189731;28;20042;-69
2021/05/26 06:28:09;;;;;;;7.10;6.40;;;10.20;64.00;;;;;;5187692;28;20593;-70
2021/05/26 06:30:41;;;;;;;6.80;6.18;;;10.30;64.60;;;;;;5189871;28;20041;-69
2021/05/26 06:33:13;;;;;;;8.32;6.32;;;10.50;65.40;;;;;;5187338;28;20050;-69
2021/05/26 06:35:45;;;;;;;9.63;6.50;;;10.70;64.60;;;;;;5184233;28;20103;-69
2021/05/26 06:38:18;;;;;;;7.65;6.95;;;10.90;61.60;;;;;;5170399;28;20096;-69
2021/05/26 06:40:49;;;;;;;7.72;6.97;;;11.10;65.20;;;;;;5188052;28;20041;-69
2021/05/26 06:43:21;;;;;;;7.85;6.90;;;11.20;65.70;;;;;;5186937;28;20073;-69
2021/05/26 06:45:53;;;;;;;7.63;6.93;;;11.40;58.50;;;;;;5187481;28;20076;-69
2021/05/26 06:48:25;;;;;;;6.95;6.25;;;11.60;59.70;;;;;;5187607;28;20065;-69
2021/05/26 06:50:57;;;;;;;7.45;6.75;;;11.70;62.30;;;;;;5187317;28;20100;-69
2021/05/26 06:53:30;;;;;;;7.47;6.78;;;11.80;56.80;;;;;;5185850;28;20753;-70
2021/05/26 06:56:02;;;;;;;7.38;6.50;;;11.80;55.80;;;;;;5184328;28;20056;-70
2021/05/26 06:58:34;;;;;;;9.27;7.40;;;12.00;54.90;;;;;;5188182;28;20041;-70
2021/05/26 07:01:06;;;;;;;8.05;7.10;;;12.10;56.70;;;;;;5186077;28;20073;-69
2021/05/26 07:03:38;;;;;;;9.07;7.32;;;12.10;55.90;;;;;;5188411;28;20123;-70
2021/05/26 07:06:10;;;;;;;10.55;8.48;;;12.10;55.70;;;;;;5183674;28;20092;-70
2021/05/26 07:08:42;;;;;;;7.88;7.10;;;12.20;57.60;;;;;;5169985;28;20096;-69
2021/05/26 07:11:14;;;;;;;8.70;7.13;;;12.10;55.90;;;;;;5186455;28;20130;-69
2021/05/26 07:13:46;;;;;;;8.95;7.85;;;12.10;55.40;;;;;;5188321;28;20117;-69
2021/05/26 07:16:18;;;;;;;8.05;7.30;;;12.00;56.50;;;;;;5186730;28;20491;-69
2021/05/26 07:18:50;;;;;;;8.65;7.70;;;12.10;56.70;;;;;;5186737;28;20046;-69
2021/05/26 07:21:22;;;;;;;8.30;7.50;;;12.10;56.80;;;;;;5189181;28;20041;-69
2021/05/26 07:23:57;;;;;;;8.52;7.55;;;12.20;56.60;;;;;;5186110;28;20050;-69
2021/05/26 07:26:29;;;;;;;7.72;7.03;;;12.20;58.00;;;;;;5188010;28;20038;-69
2021/05/26 07:29:01;;;;;;;7.40;6.80;;;12.30;61.80;;;;;;5186235;28;20054;-70
2021/05/26 07:31:33;;;;;;;8.77;7.28;;;12.40;63.10;;;;;;5187421;28;20049;-70
2021/05/26 07:34:05;;;;;;;8.05;7.35;;;12.40;62.60;;;;;;5192523;28;20042;-70
2021/05/26 07:36:41;;;;;;;8.43;7.40;;;12.50;64.60;;;;;;5190757;28;20041;-70
2021/05/26 07:39:14;;;;;;;8.15;7.45;;;12.60;63.70;;;;;;5191198;28;20046;-69
2021/05/26 07:41:46;;;;;;;8.18;7.38;;;12.60;62.00;;;;;;5193504;28;20099;-69
2021/05/26 07:44:18;;;;;;;9.70;8.80;;;12.70;57.60;;;;;;5192721;28;20049;-69
2021/05/26 07:46:53;;;;;;;8.68;7.85;;;12.70;59.10;;;;;;5189382;28;20044;-69
2021/05/26 07:49:25;;;;;;;8.25;7.45;;;12.90;59.10;;;;;;5188986;28;20459;-69
2021/05/26 07:52:03;;;;;;;8.43;7.60;;;12.90;57.10;;;;;;5188881;28;20123;-69
2021/05/26 07:54:35;;;;;;;8.23;7.45;;;13.00;59.00;;;;;;5189775;28;20389;-69
2021/05/26 07:57:07;;;;;;;8.10;7.40;;;13.10;60.00;;;;;;5190433;28;20061;-69
2021/05/26 07:59:39;;;;;;;9.32;7.85;;;13.20;56.40;;;;;;5191293;28;20065;-69
2021/05/26 08:02:12;;;;;;;8.77;7.90;;;13.30;54.30;;;;;;5189895;28;20041;-70
2021/05/26 08:04:44;;;;;;;8.90;8.10;;;13.50;56.90;;;;;;5191392;28;20050;-69
2021/05/26 08:07:15;;;;;;;11.38;10.32;;;13.60;53.40;;;;;;5187624;28;20057;-69
2021/05/26 08:09:47;;;;;;;8.95;8.05;;;13.80;56.10;;;;;;5187806;28;20592;-70
2021/05/26 08:12:19;;;;;;;8.95;8.15;;;13.90;56.60;;;;;;5189558;28;20456;-70
2021/05/26 08:14:51;;;;;;;8.70;7.90;;;14.00;54.10;;;;;;5190231;28;20054;-70
2021/05/26 08:17:23;;;;;;;10.35;9.35;;;14.10;57.60;;;;;;5189593;28;20385;-70
2021/05/26 08:19:55;;;;;;;10.48;9.57;;;14.20;48.50;;;;;;5188524;28;20516;-70
2021/05/26 08:22:28;;;;;;;9.98;9.05;;;14.20;57.30;;;;;;5189289;28;20401;-70
2021/05/26 08:25:00;;;;;;;9.25;8.45;;;14.30;53.10;;;;;;5190904;28;20049;-70
2021/05/26 08:27:32;;;;;;;9.30;8.50;;;14.40;56.60;;;;;;5188682;28;20045;-69
2021/05/26 08:30:06;;;;;;;9.45;8.65;;;14.40;56.60;;;;;;5191133;28;20050;-69
2021/05/26 08:32:38;;;;;;;9.57;8.70;;;14.40;56.90;;;;;;5189838;28;20041;-70
2021/05/26 08:35:11;;;;;;;9.30;8.50;;;14.40;53.40;;;;;;5192030;28;20053;-70
2021/05/26 08:37:43;;;;;;;9.90;9.10;;;14.50;54.80;;;;;;5188369;28;20056;-69
2021/05/26 08:40:16;;;;;;;9.48;8.68;;;14.70;55.30;;;;;;5188710;28;20053;-70
2021/05/26 08:42:49;;;;;;;9.68;8.88;;;14.90;55.50;;;;;;5190770;28;20037;-70
2021/05/26 08:45:21;;;;;;;10.02;9.13;;;14.90;51.70;;;;;;5187718;28;20152;-70
2021/05/26 08:47:54;;;;;;;9.45;8.60;;;15.00;51.50;;;;;;5190271;28;20077;-70
2021/05/26 08:50:26;;;;;;;9.27;8.48;;;14.90;51.00;;;;;;5189987;28;20050;-70
2021/05/26 08:52:58;;;;;;;9.02;8.30;;;15.00;52.10;;;;;;5191232;28;20555;-70
2021/05/26 08:55:31;;;;;;;8.80;8.00;;;15.10;53.10;;;;;;5189276;28;20042;-69
2021/05/26 08:58:03;;;;;;;9.20;8.50;;;15.10;51.40;;;;;;5192229;28;20077;-70
2021/05/26 09:00:35;;;;;;;8.90;8.20;;;15.20;51.10;;;;;;5186382;28;20455;-70
2021/05/26 09:03:07;;;;;;;9.45;8.63;;;15.30;53.30;;;;;;5190319;28;20050;-70
2021/05/26 09:05:39;;;;;;;8.85;8.15;;;15.40;49.40;;;;;;5175717;28;20500;-70
2021/05/26 09:08:19;;;;;;;9.48;8.68;;;15.40;51.60;;;;;;5189718;28;20054;-71
2021/05/26 09:10:51;;;;;;;9.05;8.25;;;15.40;51.50;;;;;;5189309;28;20452;-70
2021/05/26 09:13:40;;;;;;;8.90;8.20;;;15.40;48.30;;;;;;5190953;28;20060;-70
2021/05/26 09:16:24;;;;;;;9.65;8.85;;;15.50;50.70;;;;;;5184109;28;20046;-69
2021/05/26 09:19:07;;;;;;;9.60;8.77;;;15.60;50.90;;;;;;5187844;28;20038;-70
2021/05/26 09:21:50;;;;;;;9.32;8.63;;;15.80;53.60;;;;;;5202727;28;20045;-70
2021/05/26 09:24:26;;;;;;;10.07;9.10;;;15.90;50.90;;;;;;5187144;28;20050;-71
2021/05/26 09:27:00;;;;;;;10.15;9.35;;;16.20;50.40;;;;;;5190011;28;20041;-70
2021/05/26 09:29:37;;;;;;;10.32;9.30;;;16.40;46.90;;;;;;5188257;28;20049;-70
2021/05/26 09:32:10;;;;;;;9.70;8.77;;;16.50;45.90;;;;;;5185630;28;20045;-70
2021/05/26 09:34:45;;;;;;;10.10;9.30;;;16.50;46.30;;;;;;5189967;28;20066;-69
2021/05/26 09:37:26;;;;;;;9.90;9.10;;;16.50;46.30;;;;;;5188522;28;20046;-71
2021/05/26 09:40:03;;;;;;;9.27;8.55;;;16.60;43.20;;;;;;5189991;28;20050;-70
2021/05/26 09:42:42;;;;;;;8.80;8.10;;;16.60;47.70;;;;;;5186051;28;20053;-70
2021/05/26 09:45:26;;;;;;;9.43;8.63;;;16.60;46.20;;;;;;5186208;28;20050;-70
2021/05/26 09:47:58;;;;;;;9.38;8.57;;;16.60;44.30;;;;;;5186473;28;20053;-70
2021/05/26 09:50:39;;;;;;;9.15;8.43;;;16.60;48.60;;;;;;5169455;28;20046;-70
2021/05/26 09:53:15;;;;;;;9.32;8.60;;;16.60;45.30;;;;;;5187511;28;20069;-70
2021/05/26 09:55:48;;;;;;;9.32;8.52;;;16.60;46.10;;;;;;5188637;28;20048;-70
2021/05/26 09:58:20;;;;;;;9.23;8.52;;;16.70;46.10;;;;;;5187324;28;20049;-70
2021/05/26 10:00:52;;;;;;;9.30;8.50;;;16.80;48.60;;;;;;5187715;28;20042;-70
2021/05/26 10:03:24;;;;;;;9.57;8.68;;;16.80;44.90;;;;;;5188311;28;20041;-70
2021/05/26 10:05:56;;;;;;;9.80;9.00;;;16.80;44.10;;;;;;5187773;28;20454;-70
2021/05/26 10:08:47;;;;;;;9.43;8.73;;;16.80;46.40;;;;;;5187537;28;20586;-69
2021/05/26 10:11:32;;;;;;;9.75;8.95;;;17.00;48.00;;;;;;5177663;28;20058;-69
2021/05/26 10:14:10;;;;;;;10.00;9.00;;;17.10;44.40;;;;;;5185906;28;20060;-70
2021/05/26 10:16:44;;;;;;;9.45;8.65;;;17.10;43.40;;;;;;5166540;28;20136;-70
2021/05/26 10:19:17;;;;;;;9.93;9.02;;;17.20;48.10;;;;;;5187291;28;20742;-70
2021/05/26 10:21:50;;;;;;;9.80;8.90;;;17.10;47.80;;;;;;5185901;28;20092;-70
2021/05/26 10:24:22;;;;;;;9.70;8.90;;;17.20;42.70;;;;;;5189619;28;20034;-70
2021/05/26 10:26:59;;;;;;;9.68;8.88;;;17.30;46.50;;;;;;5187857;28;20038;-70
2021/05/26 10:29:37;;;;;;;10.60;9.70;;;17.40;48.30;;;;;;5185262;28;20071;-70
2021/05/26 10:32:25;;;;;;;10.40;9.50;;;17.50;48.30;;;;;;5185459;28;20041;-70
2021/05/26 10:34:58;;;;;;;9.63;8.77;;;17.60;48.10;;;;;;5189542;28;20509;-70
2021/05/26 10:37:41;;;;;;;9.68;8.82;;;17.70;49.10;;;;;;5187575;28;20638;-70
2021/05/26 10:40:22;;;;;;;9.63;8.82;;;17.80;46.10;;;;;;5185585;28;20100;-70
2021/05/26 10:42:54;;;;;;;9.70;8.85;;;17.70;47.20;;;;;;5188966;28;20592;-70
2021/05/26 10:45:35;;;;;;;9.98;9.07;;;17.50;45.90;;;;;;5189759;28;20050;-70
2021/05/26 10:48:08;;;;;;;9.55;8.75;;;17.20;45.60;;;;;;5188489;28;20053;-70
2021/05/26 10:50:55;;;;;;;9.20;8.45;;;17.10;46.70;;;;;;5188854;28;20103;-70
2021/05/26 10:53:37;;;;;;;9.85;9.05;;;17.10;47.30;;;;;;5190881;28;20724;-70
2021/05/26 10:56:37;;;;;;;9.50;8.57;;;17.00;46.20;;;;;;5186617;28;20065;-70
2021/05/26 10:59:14;;;;;;;9.25;8.45;;;17.00;45.40;;;;;;5188238;28;20477;-70
2021/05/26 11:02:09;;;;;;;9.20;8.40;;;17.00;47.10;;;;;;5183462;28;20038;-70
2021/05/26 11:04:41;;;;;;;9.40;8.60;;;17.00;48.30;;;;;;5190241;28;20046;-70
2021/05/26 11:07:20;;;;;;;9.35;8.55;;;17.00;46.50;;;;;;5190967;28;20141;-69
2021/05/26 11:09:56;;;;;;;9.52;8.70;;;17.00;44.60;;;;;;5194459;28;20044;-71
2021/05/26 11:12:56;;;;;;;9.32;8.43;;;16.90;43.90;;;;;;5192014;28;20095;-70
2021/05/26 11:15:42;;;;;;;9.32;8.52;;;16.70;38.10;;;;;;5192118;28;20050;-69
2021/05/26 11:21:00;;;;;;;9.88;9.07;;;16.30;40.20;;;;;;5194054;28;20566;-69
2021/05/26 11:23:32;;;;;;;9.90;9.10;;;16.10;43.10;;;;;;5190988;28;20099;-69
2021/05/26 11:26:06;;;;;;;9.45;8.65;;;16.00;42.00;;;;;;5173038;28;20050;-69
2021/05/26 11:28:38;;;;;;;9.25;8.45;;;15.90;40.80;;;;;;5194057;28;20049;-69
2021/05/26 11:31:11;;;;;;;9.35;8.55;;;15.90;40.90;;;;;;5191013;28;20095;-69
2021/05/26 11:34:00;;;;;;;9.00;8.20;;;15.90;41.50;;;;;;5191760;28;20100;-70
2021/05/26 11:36:45;;;;;;;9.40;8.70;;;15.90;39.40;;;;;;5194488;28;20077;-67
2021/05/26 11:39:56;;;;;;;9.35;8.55;;;15.90;42.30;;;;;;5192218;28;20041;-70
2021/05/26 11:42:26;;;;;;;8.80;8.10;;;15.80;38.80;;;;;;5185390;28;20489;-68
2021/05/26 11:45:06;;;;;;;9.02;8.23;;;15.70;39.90;;;;;;5178387;28;20044;-69
2021/05/26 11:47:46;;;;;;;9.63;8.73;;;15.70;41.50;;;;;;5189751;28;20041;-69
2021/05/26 11:50:23;;;;;;;;;;;15.70;42.50;;;;;;5191635;28;20045;-69
2021/05/26 11:53:01;;;;;;;9.52;8.57;;;15.80;40.20;;;;;;5192714;28;20257;-69
2021/05/26 11:55:32;;;;;;;9.68;8.77;;;15.80;43.30;;;;;;5192322;28;20524;-69
2021/05/26 11:58:05;;;;;;;9.20;8.48;;;15.80;41.70;;;;;;5186890;28;20156;-69
2021/05/26 12:00:37;;;;;;;9.88;9.07;;;15.80;44.40;;;;;;5191406;28;20053;-69
2021/05/26 12:03:13;;;;;;;9.98;9.07;;;15.90;39.90;;;;;;5176804;28;20096;-69
2021/05/26 12:05:47;;;;;;;9.85;9.00;;;15.90;40.00;;;;;;5204655;28;20178;-70
2021/05/26 12:08:33;;;;;;;9.75;8.95;;;15.90;42.50;;;;;;5191326;28;20041;-69
2021/05/26 12:11:10;;;;;;;9.80;9.00;;;15.80;41.20;;;;;;5189582;28;20057;-68
2021/05/26 12:13:44;;;;;;;8.98;8.27;;;15.80;42.60;;;;;;5193045;28;20051;-68
2021/05/26 12:16:20;;;;;;;9.77;9.05;;;15.90;44.30;;;;;;5191525;28;20103;-68
2021/05/26 12:18:54;;;;;;;9.73;8.93;;;15.90;42.90;;;;;;5191046;28;20586;-69
2021/05/26 12:21:28;;;;;;;9.40;8.60;;;15.90;43.00;;;;;;5189333;28;20123;-69
2021/05/26 12:24:02;;;;;;;9.75;8.95;;;15.90;44.30;;;;;;5190108;28;20099;-69
2021/05/26 12:26:36;;;;;;;9.95;9.15;;;16.00;40.90;;;;;;5190207;28;20096;-69
2021/05/26 12:29:09;;;;;;;10.20;9.40;;;16.20;43.30;;;;;;5189367;28;20434;-69
2021/05/26 12:31:42;;;;;;;9.82;9.02;;;16.40;42.00;;;;;;5189674;28;20041;-69
2021/05/26 12:34:16;;;;;;;10.02;9.23;;;16.40;42.50;;;;;;5189372;28;20057;-68
2021/05/26 12:36:53;;;;;;;9.77;8.88;;;16.40;43.10;;;;;;5186692;28;20638;-68
2021/05/26 12:39:25;;;;;;;9.75;8.95;;;16.50;42.70;;;;;;5188703;28;20045;-69
2021/05/26 12:41:57;;;;;;;9.65;8.93;;;16.50;42.90;;;;;;5189493;28;20065;-68
2021/05/26 12:44:30;;;;;;;9.30;8.50;;;16.50;41.90;;;;;;5190023;28;20111;-70
2021/05/26 12:47:03;;;;;;;9.40;8.60;;;16.50;40.60;;;;;;5187143;28;20050;-70
2021/05/26 12:49:46;;;;;;;9.52;8.73;;;16.50;42.50;;;;;;5189477;28;20058;-69
2021/05/26 12:52:27;;;;;;;10.13;9.32;;;16.50;45.60;;;;;;5188501;28;20092;-69
2021/05/26 12:55:14;;;;;;;10.40;9.60;;;16.70;42.90;;;;;;5191922;28;20540;-69
2021/05/26 12:57:46;;;;;;;10.60;9.70;;;16.80;41.60;;;;;;5178586;28;20049;-70
2021/05/26 13:00:22;;;;;;;11.07;10.02;;;16.90;43.00;;;;;;5190133;28;20038;-70
2021/05/26 13:03:19;;;;;;;10.82;9.93;;;17.00;42.30;;;;;;5187174;28;20066;-68
2021/05/26 13:05:51;;;;;;;11.15;10.25;;;17.20;43.50;;;;;;5188525;28;20102;-69
2021/05/26 13:08:23;;;;;;;10.40;9.52;;;17.30;41.70;;;;;;5185670;28;20523;-69
2021/05/26 13:10:58;;;;;;;10.25;9.45;;;17.40;40.40;;;;;;5187207;28;20110;-70
2021/05/26 13:13:33;;;;;;;11.10;10.00;;;17.20;39.90;;;;;;5192096;28;20107;-69
2021/05/26 13:16:11;;;;;;;10.25;9.45;;;17.20;40.20;;;;;;5189184;28;20050;-69
2021/05/26 13:18:43;;;;;;;10.35;9.55;;;17.10;39.90;;;;;;5189187;28;20702;-67
2021/05/26 13:21:15;;;;;;;10.35;9.50;;;17.10;40.90;;;;;;5192702;28;20046;-70
2021/05/26 13:23:47;;;;;;;10.75;9.80;;;17.10;41.90;;;;;;5170549;28;20041;-69
2021/05/26 13:26:19;;;;;;;10.93;10.02;;;17.30;41.40;;;;;;5187883;28;20045;-68
2021/05/26 13:28:51;;;;;;;10.52;9.73;;;17.20;40.10;;;;;;5189130;28;20073;-69
2021/05/26 13:31:23;;;;;;;11.10;10.10;;;17.40;40.50;;;;;;5186319;28;20540;-69
2021/05/26 13:33:55;;;;;;;10.82;10.02;;;17.50;41.60;;;;;;5187563;28;20045;-69